createdAt,value
2022-10-29T00:00:52.933Z,9.15
2022-10-29T00:03:20.966Z,9.63
2022-10-29T00:05:59.510Z,8.65
2022-10-29T00:08:26.788Z,9.00
2022-10-29T00:10:53.626Z,8.50
2022-10-29T00:13:20.461Z,8.45
2022-10-29T00:15:47.413Z,8.88
2022-10-29T00:18:14.249Z,8.50
2022-10-29T00:20:41.064Z,8.32
2022-10-29T00:23:07.850Z,8.63
2022-10-29T00:25:34.652Z,8.77
2022-10-29T00:28:01.426Z,9.20
2022-10-29T00:30:28.196Z,9.68
2022-10-29T00:32:55.309Z,9.55
2022-10-29T00:35:22.513Z,9.17
2022-10-29T00:37:49.671Z,8.52
2022-10-29T00:40:16.515Z,9.52
2022-10-29T00:42:43.221Z,9.48
2022-10-29T00:45:19.716Z,9.52
2022-10-29T00:47:51.030Z,8.43
2022-10-29T00:50:20.216Z,8.98
2022-10-29T00:52:50.197Z,10.35
2022-10-29T00:55:19.533Z,9.52
2022-10-29T00:57:52.358Z,10.48
2022-10-29T01:00:21.342Z,9.40
2022-10-29T01:02:48.415Z,9.57
2022-10-29T01:05:28.147Z,9.95
2022-10-29T01:07:55.122Z,9.00
2022-10-29T01:10:36.271Z,9.55
2022-10-29T01:13:13.699Z,9.57
2022-10-29T01:16:02.200Z,9.45
2022-10-29T01:18:48.530Z,9.68
2022-10-29T01:21:38.653Z,9.15
2022-10-29T01:24:17.583Z,9.48
2022-10-29T01:27:10.720Z,9.27
2022-10-29T01:30:13.052Z,10.25
2022-10-29T01:32:49.924Z,10.50
2022-10-29T01:35:19.310Z,9.73
2022-10-29T01:38:10.156Z,10.20
2022-10-29T01:40:50.806Z,9.90
2022-10-29T01:44:10.179Z,10.15
2022-10-29T01:46:48.604Z,10.60
2022-10-29T01:49:21.849Z,10.45
2022-10-29T01:51:51.191Z,9.98
2022-10-29T01:54:18.025Z,10.00
2022-10-29T01:56:54.008Z,10.70
2022-10-29T01:59:35.353Z,11.05
2022-10-29T02:02:21.279Z,10.32
2022-10-29T02:05:12.788Z,10.65
2022-10-29T02:07:56.825Z,10.17
2022-10-29T02:10:33.964Z,10.65
2022-10-29T02:13:01.000Z,10.85
2022-10-29T02:15:35.485Z,11.90
2022-10-29T02:18:05.447Z,12.05
2022-10-29T02:20:32.532Z,11.30
2022-10-29T02:22:59.485Z,11.20
2022-10-29T02:25:27.551Z,11.48
2022-10-29T02:27:54.704Z,12.05
2022-10-29T02:30:21.610Z,11.88
2022-10-29T02:32:48.426Z,11.73
2022-10-29T02:35:15.230Z,11.90
2022-10-29T02:37:42.182Z,11.95
2022-10-29T02:40:09.587Z,12.55
2022-10-29T02:42:36.601Z,13.15
2022-10-29T02:45:03.770Z,12.33
2022-10-29T02:47:30.542Z,12.40
2022-10-29T02:49:57.267Z,12.50
2022-10-29T02:52:24.141Z,12.55
2022-10-29T02:54:50.869Z,13.07
2022-10-29T02:57:17.702Z,12.23
2022-10-29T02:59:44.586Z,12.02
2022-10-29T03:02:11.483Z,13.45
2022-10-29T03:04:39.538Z,12.27
2022-10-29T03:07:06.473Z,11.93
2022-10-29T03:09:33.325Z,12.50
2022-10-29T03:12:00.075Z,12.37
2022-10-29T03:14:26.829Z,12.25
2022-10-29T03:16:53.569Z,12.43
2022-10-29T03:19:20.307Z,13.35
2022-10-29T03:21:47.095Z,11.43
2022-10-29T03:24:13.874Z,13.13
2022-10-29T03:26:40.694Z,12.57
2022-10-29T03:29:07.519Z,12.25
2022-10-29T03:31:34.346Z,11.90
2022-10-29T03:34:01.201Z,12.67
2022-10-29T03:36:28.004Z,12.95
2022-10-29T03:38:54.728Z,12.37
2022-10-29T03:41:21.463Z,12.37
2022-10-29T03:43:48.369Z,13.13
2022-10-29T03:46:15.248Z,12.70
2022-10-29T03:48:42.094Z,12.75
2022-10-29T03:51:10.057Z,13.68
2022-10-29T03:53:37.597Z,12.40
2022-10-29T03:56:05.018Z,13.70
2022-10-29T03:58:31.827Z,13.00
2022-10-29T04:01:06.825Z,13.57
2022-10-29T04:03:34.999Z,12.95
2022-10-29T04:06:08.493Z,14.23
2022-10-29T04:08:35.329Z,14.35
2022-10-29T04:11:02.112Z,14.10
2022-10-29T04:13:28.847Z,15.20
2022-10-29T04:15:56.439Z,14.85
2022-10-29T04:18:24.514Z,14.77
2022-10-29T04:29:11.792Z,14.85
2022-10-29T04:31:38.605Z,15.23
2022-10-29T04:34:05.635Z,15.18
2022-10-29T04:36:32.356Z,14.97
2022-10-29T04:38:59.156Z,14.48
2022-10-29T04:41:25.992Z,14.48
2022-10-29T04:43:52.816Z,14.63
2022-10-29T04:46:19.641Z,14.77
2022-10-29T04:48:46.465Z,15.90
2022-10-29T04:51:21.169Z,14.85
2022-10-29T04:53:48.349Z,14.93
2022-10-29T04:56:15.254Z,14.82
2022-10-29T04:58:42.048Z,15.35
2022-10-29T05:01:08.966Z,15.40
2022-10-29T05:03:36.338Z,13.98
2022-10-29T05:06:05.171Z,13.60
2022-10-29T05:08:32.222Z,14.25
2022-10-29T05:11:02.291Z,14.43
2022-10-29T05:13:29.332Z,14.60
2022-10-29T05:15:56.137Z,15.27
2022-10-29T05:18:23.224Z,14.65
2022-10-29T05:20:54.182Z,14.52
2022-10-29T05:23:21.328Z,14.82
2022-10-29T05:25:49.310Z,14.13
2022-10-29T05:28:21.342Z,15.75
2022-10-29T05:30:50.412Z,13.85
2022-10-29T05:33:20.616Z,14.10
2022-10-29T05:35:48.230Z,14.20
2022-10-29T05:38:16.364Z,12.97
2022-10-29T05:40:45.205Z,13.75
2022-10-29T05:43:16.821Z,14.10
2022-10-29T05:45:44.061Z,13.70
2022-10-29T05:50:39.903Z,13.70
2022-10-29T05:53:10.111Z,14.70
2022-10-29T05:55:37.165Z,13.93
2022-10-29T05:58:06.782Z,13.88
2022-10-29T06:00:38.846Z,14.20
2022-10-29T06:03:20.155Z,15.23
2022-10-29T06:05:48.082Z,16.40
2022-10-29T06:08:15.383Z,15.25
2022-10-29T06:10:42.239Z,16.45
2022-10-29T06:13:13.773Z,15.23
2022-10-29T06:15:40.852Z,15.67
2022-10-29T06:18:07.778Z,15.38
2022-10-29T06:20:35.003Z,16.02
2022-10-29T06:23:01.863Z,15.77
2022-10-29T06:25:28.957Z,18.65
2022-10-29T06:28:06.269Z,18.57
2022-10-29T06:30:34.714Z,19.37
2022-10-29T06:33:02.604Z,19.95
2022-10-29T06:35:29.666Z,21.00
2022-10-29T06:37:56.839Z,19.55
2022-10-29T06:40:23.813Z,18.83
2022-10-29T06:42:50.662Z,19.33
2022-10-29T06:45:17.473Z,19.73
2022-10-29T06:47:45.678Z,18.87
2022-10-29T06:50:14.222Z,20.12
2022-10-29T06:52:40.961Z,19.83
2022-10-29T06:55:08.479Z,19.30
2022-10-29T06:57:35.547Z,19.12
2022-10-29T07:00:07.272Z,19.62
2022-10-29T07:02:35.797Z,18.48
2022-10-29T07:05:02.606Z,19.40
2022-10-29T07:07:29.849Z,19.35
2022-10-29T07:09:58.242Z,18.48
2022-10-29T07:12:25.040Z,18.87
2022-10-29T07:14:51.837Z,19.10
2022-10-29T07:17:18.662Z,18.17
2022-10-29T07:19:45.430Z,17.52
2022-10-29T07:22:12.229Z,18.30
2022-10-29T07:24:39.076Z,18.42
2022-10-29T07:27:07.355Z,19.15
2022-10-29T07:29:35.264Z,18.50
2022-10-29T07:32:02.050Z,21.08
2022-10-29T07:34:28.785Z,18.55
2022-10-29T07:36:55.506Z,20.10
2022-10-29T07:39:22.816Z,18.27
2022-10-29T07:41:50.239Z,17.80
2022-10-29T07:44:17.623Z,17.65
2022-10-29T07:46:44.334Z,18.80
2022-10-29T07:49:11.547Z,18.12
2022-10-29T07:51:38.476Z,19.17
2022-10-29T07:54:05.241Z,18.37
2022-10-29T07:56:32.105Z,17.95
2022-10-29T07:58:59.121Z,18.05
2022-10-29T08:01:26.201Z,20.92
2022-10-29T08:03:53.089Z,18.52
2022-10-29T08:06:19.862Z,17.53
2022-10-29T08:08:46.850Z,17.23
2022-10-29T08:11:13.695Z,20.15
2022-10-29T08:13:40.440Z,17.02
2022-10-29T08:16:07.682Z,16.95
2022-10-29T08:18:34.920Z,18.27
2022-10-29T08:21:05.867Z,18.80
2022-10-29T08:23:32.676Z,20.00
2022-10-29T08:25:59.501Z,19.55
2022-10-29T08:28:27.610Z,20.73
2022-10-29T08:30:55.274Z,20.33
2022-10-29T08:33:22.096Z,18.50
2022-10-29T08:35:49.144Z,18.37
2022-10-29T08:38:15.992Z,19.08
2022-10-29T08:41:07.183Z,17.85
2022-10-29T08:43:44.563Z,18.13
2022-10-29T08:46:42.198Z,17.37
2022-10-29T08:49:20.977Z,20.25
2022-10-29T08:51:55.442Z,19.12
2022-10-29T08:54:30.727Z,20.77
2022-10-29T08:57:02.130Z,19.77
2022-10-29T08:59:35.709Z,19.23
2022-10-29T09:02:02.664Z,17.73
2022-10-29T09:04:39.191Z,18.10
2022-10-29T09:07:24.778Z,17.10
2022-10-29T09:10:06.616Z,17.13
2022-10-29T09:12:44.335Z,17.30
2022-10-29T09:15:41.364Z,17.73
2022-10-29T09:18:29.461Z,17.45
2022-10-29T09:21:08.140Z,17.58
2022-10-29T09:24:10.364Z,17.40
2022-10-29T09:26:37.050Z,15.98
2022-10-29T09:29:34.031Z,16.30
2022-10-29T09:32:16.688Z,16.05
2022-10-29T09:34:49.847Z,16.73
2022-10-29T09:37:33.954Z,16.13
2022-10-29T09:40:06.194Z,15.60
2022-10-29T09:42:38.300Z,16.23
2022-10-29T09:45:10.975Z,15.95
2022-10-29T09:47:56.064Z,14.32
2022-10-29T09:50:36.145Z,14.73
2022-10-29T09:53:03.335Z,14.80
2022-10-29T09:55:39.822Z,15.15
2022-10-29T09:58:07.260Z,14.05
2022-10-29T10:00:35.158Z,15.25
2022-10-29T10:03:02.205Z,14.63
2022-10-29T10:05:32.129Z,14.23
2022-10-29T10:08:14.913Z,14.13
2022-10-29T10:10:53.833Z,14.00
2022-10-29T10:13:26.982Z,13.70
2022-10-29T10:16:00.041Z,12.63
2022-10-29T10:18:33.809Z,14.57
2022-10-29T10:21:02.791Z,14.15
2022-10-29T10:23:43.019Z,14.32
2022-10-29T10:26:45.414Z,14.85
2022-10-29T10:29:16.734Z,13.37
2022-10-29T10:31:56.019Z,13.90
2022-10-29T10:34:34.951Z,14.60
2022-10-29T10:37:10.783Z,15.40
2022-10-29T10:39:38.952Z,14.55
2022-10-29T10:42:22.651Z,15.40
2022-10-29T10:44:54.444Z,14.48
2022-10-29T10:47:27.412Z,13.73
2022-10-29T10:49:54.648Z,13.35
2022-10-29T10:52:28.767Z,12.27
2022-10-29T10:54:58.087Z,13.97
2022-10-29T10:57:29.803Z,12.95
2022-10-29T11:00:06.437Z,11.57
2022-10-29T11:02:45.399Z,12.95
2022-10-29T11:05:17.648Z,12.88
2022-10-29T11:07:52.752Z,12.60
2022-10-29T11:10:24.345Z,12.32
2022-10-29T11:12:55.550Z,13.02
2022-10-29T11:15:38.365Z,13.88
2022-10-29T11:18:19.620Z,13.88
2022-10-29T11:20:52.781Z,13.30
2022-10-29T11:23:25.635Z,12.80
2022-10-29T11:26:31.589Z,14.63
2022-10-29T11:29:23.311Z,13.35
2022-10-29T11:32:00.121Z,13.65
2022-10-29T11:34:39.346Z,13.70
2022-10-29T11:37:27.874Z,15.23
2022-10-29T11:40:12.602Z,13.80
2022-10-29T11:42:41.004Z,13.57
2022-10-29T11:45:13.717Z,14.48
2022-10-29T11:48:03.415Z,13.20
2022-10-29T11:50:44.091Z,12.23
2022-10-29T11:53:32.652Z,11.77
2022-10-29T11:56:22.612Z,13.10
2022-10-29T11:58:58.143Z,13.77
2022-10-29T12:01:36.782Z,14.07
2022-10-29T12:04:23.132Z,14.48
2022-10-29T12:07:02.308Z,14.18
2022-10-29T12:09:47.739Z,15.68
2022-10-29T12:12:36.746Z,12.40
2022-10-29T12:15:09.634Z,14.57
2022-10-29T12:17:58.435Z,14.02
2022-10-29T12:20:48.653Z,14.02
2022-10-29T12:23:49.727Z,14.87
2022-10-29T12:26:42.685Z,14.25
2022-10-29T12:29:46.811Z,14.77
2022-10-29T12:32:25.536Z,15.70
2022-10-29T12:35:03.174Z,15.05
2022-10-29T12:38:18.207Z,15.27
2022-10-29T12:40:48.566Z,15.70
2022-10-29T12:43:25.510Z,14.83
2022-10-29T12:46:26.047Z,15.27
2022-10-29T12:49:40.448Z,17.83
2022-10-29T12:52:18.941Z,15.43
2022-10-29T12:54:49.677Z,15.50
2022-10-29T12:57:16.399Z,16.30
2022-10-29T12:59:44.288Z,16.25
2022-10-29T13:02:38.929Z,15.40
2022-10-29T13:05:11.670Z,15.68
2022-10-29T13:07:47.562Z,15.95
2022-10-29T13:10:30.867Z,14.20
2022-10-29T13:13:20.294Z,15.80
2022-10-29T13:16:00.846Z,15.73
2022-10-29T13:18:40.419Z,16.02
2022-10-29T13:21:08.671Z,15.75
2022-10-29T13:23:37.659Z,16.30
2022-10-29T13:26:08.796Z,15.38
2022-10-29T13:28:35.722Z,15.45
2022-10-29T13:31:05.195Z,14.90
2022-10-29T13:33:31.883Z,15.75
2022-10-29T13:36:02.937Z,15.07
2022-10-29T13:39:05.923Z,14.60
2022-10-29T13:41:54.140Z,21.17
2022-10-29T13:44:24.268Z,28.12
2022-10-29T13:47:02.687Z,16.67
2022-10-29T13:49:38.532Z,18.37
2022-10-29T13:52:19.736Z,16.23
2022-10-29T13:55:20.648Z,15.82
2022-10-29T13:58:15.301Z,17.33
2022-10-29T14:00:47.734Z,16.17
2022-10-29T14:03:26.379Z,17.03
2022-10-29T14:06:06.593Z,16.45
2022-10-29T14:09:18.418Z,17.85
2022-10-29T14:11:55.079Z,19.80
2022-10-29T14:14:35.173Z,19.15
2022-10-29T14:17:12.511Z,19.23
2022-10-29T14:19:44.645Z,19.02
2022-10-29T14:22:37.708Z,20.98
2022-10-29T14:25:24.448Z,19.75
2022-10-29T14:28:13.114Z,19.65
2022-10-29T14:30:39.976Z,19.23
2022-10-29T14:33:22.823Z,19.00
2022-10-29T14:35:49.983Z,19.50
2022-10-29T14:38:18.020Z,20.25
2022-10-29T14:40:46.582Z,19.05
2022-10-29T14:43:26.401Z,20.43
2022-10-29T14:45:56.130Z,19.87
2022-10-29T14:48:23.540Z,19.73
2022-10-29T14:50:51.515Z,20.92
2022-10-29T14:53:34.635Z,21.33
2022-10-29T14:56:09.863Z,19.73
2022-10-29T14:58:38.134Z,20.95
2022-10-29T15:01:14.519Z,21.58
2022-10-29T15:03:41.969Z,23.60
2022-10-29T15:06:20.347Z,28.75
2022-10-29T15:09:00.820Z,25.47
2022-10-29T15:11:38.373Z,24.77
2022-10-29T15:14:33.010Z,23.90
2022-10-29T15:17:01.282Z,22.05
2022-10-29T15:19:28.802Z,23.38
2022-10-29T15:21:55.632Z,20.97
2022-10-29T15:24:24.388Z,21.42
2022-10-29T15:27:02.693Z,21.42
2022-10-29T15:29:42.770Z,20.35
2022-10-29T15:32:16.065Z,22.35
2022-10-29T15:35:00.998Z,20.37
2022-10-29T15:37:30.841Z,20.33
2022-10-29T15:39:57.488Z,21.58
2022-10-29T15:42:27.749Z,21.27
2022-10-29T15:47:45.174Z,21.07
2022-10-29T15:50:21.550Z,21.83
2022-10-29T15:53:01.792Z,21.02
2022-10-29T15:55:32.115Z,19.75
2022-10-29T15:58:04.298Z,20.62
2022-10-29T16:00:32.232Z,22.27
2022-10-29T16:03:13.922Z,21.52
2022-10-29T16:05:42.897Z,23.80
2022-10-29T16:08:26.715Z,21.85
2022-10-29T16:10:54.841Z,23.02
2022-10-29T16:13:22.617Z,23.00
2022-10-29T16:15:49.362Z,22.15
2022-10-29T16:18:16.247Z,22.10
2022-10-29T16:20:43.506Z,20.02
2022-10-29T16:23:11.456Z,22.92
2022-10-29T16:25:39.084Z,24.10
2022-10-29T16:28:06.300Z,23.60
2022-10-29T16:30:34.368Z,24.87
2022-10-29T16:33:02.165Z,23.90
2022-10-29T16:35:30.446Z,23.45
2022-10-29T16:37:58.075Z,24.10
2022-10-29T16:40:27.665Z,25.33
2022-10-29T16:42:55.341Z,26.77
2022-10-29T16:45:25.367Z,24.35
2022-10-29T16:47:52.932Z,24.83
2022-10-29T16:50:25.694Z,23.53
2022-10-29T16:53:00.632Z,21.55
2022-10-29T16:55:29.183Z,22.92
2022-10-29T16:57:57.331Z,24.20
2022-10-29T17:00:26.262Z,22.48
2022-10-29T17:02:53.406Z,21.90
2022-10-29T17:05:20.210Z,21.52
2022-10-29T17:07:47.477Z,23.40
2022-10-29T17:10:14.690Z,21.85
2022-10-29T17:12:41.879Z,23.95
2022-10-29T17:15:09.542Z,23.30
2022-10-29T17:17:37.536Z,26.30
2022-10-29T17:20:06.490Z,22.73
2022-10-29T17:22:33.929Z,24.87
2022-10-29T17:25:04.057Z,25.42
2022-10-29T17:27:31.609Z,24.00
2022-10-29T17:29:59.112Z,23.12
2022-10-29T17:32:26.435Z,20.95
2022-10-29T17:34:53.685Z,22.62
2022-10-29T17:37:21.187Z,20.77
2022-10-29T17:39:48.597Z,19.63
2022-10-29T17:42:15.871Z,18.77
2022-10-29T17:44:43.090Z,19.00
2022-10-29T17:47:12.184Z,19.23
2022-10-29T17:49:39.605Z,19.23
2022-10-29T17:52:06.959Z,19.63
2022-10-29T17:54:35.394Z,19.95
2022-10-29T17:57:02.931Z,20.00
2022-10-29T17:59:30.337Z,19.15
2022-10-29T18:01:57.678Z,19.37
2022-10-29T18:04:25.069Z,20.07
2022-10-29T18:06:52.772Z,19.73
2022-10-29T18:09:21.265Z,18.92
2022-10-29T18:11:50.424Z,19.37
2022-10-29T18:14:18.223Z,18.35
2022-10-29T18:16:46.477Z,19.53
2022-10-29T18:19:14.182Z,19.50
2022-10-29T18:21:41.512Z,19.45
2022-10-29T18:24:09.481Z,19.08
2022-10-29T18:26:37.852Z,19.30
2022-10-29T18:29:08.502Z,19.13
2022-10-29T18:31:37.664Z,19.77
2022-10-29T18:34:08.034Z,19.62
2022-10-29T18:36:36.126Z,20.35
2022-10-29T18:39:06.170Z,20.02
2022-10-29T18:41:35.509Z,20.53
2022-10-29T18:44:03.374Z,20.05
2022-10-29T18:46:32.166Z,19.50
2022-10-29T18:49:00.499Z,20.20
2022-10-29T18:51:35.118Z,19.48
2022-10-29T18:54:02.947Z,20.03
2022-10-29T18:56:30.942Z,20.73
2022-10-29T18:58:59.556Z,19.95
2022-10-29T19:01:33.101Z,20.70
2022-10-29T19:04:03.750Z,20.98
2022-10-29T19:06:33.438Z,20.63
2022-10-29T19:09:04.312Z,20.92
2022-10-29T19:11:32.053Z,21.60
2022-10-29T19:14:01.804Z,19.77
2022-10-29T19:16:31.395Z,20.55
2022-10-29T19:19:01.453Z,21.53
2022-10-29T19:21:29.418Z,21.00
2022-10-29T19:23:59.864Z,21.90
2022-10-29T19:26:30.139Z,21.00
2022-10-29T19:29:02.287Z,20.30
2022-10-29T19:31:31.498Z,21.97
2022-10-29T19:34:04.329Z,20.48
2022-10-29T19:36:32.588Z,22.25
2022-10-29T19:39:00.616Z,21.85
2022-10-29T19:41:29.468Z,22.85
2022-10-29T19:44:04.248Z,22.10
2022-10-29T19:46:31.760Z,20.62
2022-10-29T19:48:59.407Z,20.98
2022-10-29T19:51:27.400Z,20.58
2022-10-29T19:53:57.428Z,19.98
2022-10-29T19:56:24.831Z,20.33
2022-10-29T19:58:52.502Z,19.67
2022-10-29T20:01:20.084Z,20.75
2022-10-29T20:03:47.730Z,20.80
2022-10-29T20:06:18.026Z,19.90
2022-10-29T20:08:46.340Z,20.23
2022-10-29T20:11:14.102Z,19.67
2022-10-29T20:13:41.634Z,20.83
2022-10-29T20:16:12.631Z,20.20
2022-10-29T20:18:40.313Z,20.27
2022-10-29T20:21:08.477Z,19.97
2022-10-29T20:23:36.102Z,21.62
2022-10-29T20:26:06.783Z,22.73
2022-10-29T20:28:35.190Z,21.70
2022-10-29T20:31:17.914Z,20.50
2022-10-29T20:33:56.732Z,20.10
2022-10-29T20:36:24.885Z,20.02
2022-10-29T20:38:53.414Z,19.62
2022-10-29T20:41:22.009Z,19.35
2022-10-29T20:43:54.147Z,18.12
2022-10-29T20:46:22.466Z,16.97
2022-10-29T20:48:49.468Z,17.98
2022-10-29T20:51:19.583Z,18.23
2022-10-29T20:53:46.458Z,19.33
2022-10-29T20:56:16.152Z,18.23
2022-10-29T20:58:43.871Z,18.67
2022-10-29T21:01:13.965Z,18.62
2022-10-29T21:03:41.566Z,18.17
2022-10-29T21:06:15.796Z,17.35
2022-10-29T21:08:44.971Z,17.65
2022-10-29T21:11:14.629Z,16.57
2022-10-29T21:13:41.969Z,17.25
2022-10-29T21:16:27.444Z,16.62
2022-10-29T21:19:01.815Z,16.52
2022-10-29T21:21:30.107Z,14.55
2022-10-29T21:23:57.311Z,15.37
2022-10-29T21:26:26.250Z,15.95
2022-10-29T21:28:54.030Z,16.33
2022-10-29T21:31:21.757Z,15.75
2022-10-29T21:33:52.780Z,14.57
2022-10-29T21:36:20.259Z,15.53
2022-10-29T21:38:48.094Z,14.93
2022-10-29T21:41:15.323Z,15.88
2022-10-29T21:43:42.132Z,14.87
2022-10-29T21:46:09.010Z,14.70
2022-10-29T21:48:36.130Z,15.43
2022-10-29T21:51:14.124Z,14.70
2022-10-29T21:53:40.930Z,15.57
2022-10-29T21:56:10.214Z,14.10
2022-10-29T21:58:36.984Z,15.55
2022-10-29T22:01:03.980Z,15.23
2022-10-29T22:03:35.054Z,15.05
2022-10-29T22:06:06.740Z,15.52
2022-10-29T22:08:34.334Z,15.23
2022-10-29T22:11:01.609Z,14.35
2022-10-29T22:13:29.708Z,14.50
2022-10-29T22:15:56.692Z,16.00
2022-10-29T22:18:24.708Z,15.65
2022-10-29T22:21:04.494Z,15.70
2022-10-29T22:23:31.376Z,14.38
2022-10-29T22:25:58.118Z,14.97
2022-10-29T22:28:25.035Z,16.00
2022-10-29T22:31:00.317Z,16.12
2022-10-29T22:33:27.801Z,16.55
2022-10-29T22:35:55.181Z,16.37
2022-10-29T22:38:22.326Z,16.77
2022-10-29T22:40:49.113Z,16.42
2022-10-29T22:43:16.200Z,15.23
2022-10-29T22:45:45.261Z,16.23
2022-10-29T22:48:12.432Z,16.20
2022-10-29T22:50:39.346Z,14.93
2022-10-29T22:53:06.258Z,15.65
2022-10-29T22:55:33.046Z,15.80
2022-10-29T22:58:00.908Z,16.98
2022-10-29T23:00:27.761Z,16.98
2022-10-29T23:02:55.050Z,17.47
2022-10-29T23:05:22.059Z,17.55
2022-10-29T23:07:48.800Z,18.08
2022-10-29T23:10:15.652Z,20.75
2022-10-29T23:12:42.408Z,19.05
2022-10-29T23:15:09.474Z,18.07
2022-10-29T23:17:36.278Z,18.12
2022-10-29T23:20:03.449Z,17.90
2022-10-29T23:22:30.258Z,17.62
2022-10-29T23:24:57.009Z,17.50
2022-10-29T23:27:23.918Z,17.33
2022-10-29T23:29:50.735Z,17.58
2022-10-29T23:32:17.552Z,18.45
2022-10-29T23:34:44.348Z,17.62
2022-10-29T23:37:11.161Z,16.77
2022-10-29T23:39:37.894Z,18.60
2022-10-29T23:42:06.071Z,18.35
2022-10-29T23:44:32.761Z,17.87
2022-10-29T23:46:59.569Z,17.87
2022-10-29T23:49:26.340Z,16.77
2022-10-29T23:51:53.206Z,15.50
2022-10-29T23:54:19.973Z,13.62
2022-10-29T23:56:46.746Z,13.75
2022-10-29T23:59:13.495Z,13.15
